createdAt,value
2018-04-07T00:00:04.250Z,18.97
2018-04-07T00:02:31.818Z,19.57
2018-04-07T00:04:59.385Z,20.00
2018-04-07T00:07:27.060Z,19.73
2018-04-07T00:09:54.687Z,20.13
2018-04-07T00:12:22.254Z,19.80
2018-04-07T00:14:49.906Z,20.33
2018-04-07T00:17:17.467Z,20.43
2018-04-07T00:19:45.041Z,19.57
2018-04-07T00:22:12.602Z,20.20
2018-04-07T00:24:40.403Z,21.43
2018-04-07T00:27:08.006Z,19.97
2018-04-07T00:29:35.834Z,22.20
2018-04-07T00:32:03.655Z,20.80
2018-04-07T00:34:31.561Z,19.80
2018-04-07T00:36:59.137Z,20.37
2018-04-07T00:39:26.713Z,19.77
2018-04-07T00:41:54.310Z,19.77
2018-04-07T00:44:21.881Z,21.03
2018-04-07T00:46:49.446Z,19.30
2018-04-07T00:49:17.137Z,20.03
2018-04-07T00:51:44.898Z,19.87
2018-04-07T00:54:12.463Z,19.47
2018-04-07T00:56:40.025Z,19.90
2018-04-07T00:59:07.744Z,20.17
2018-04-07T01:01:35.571Z,19.13
2018-04-07T01:04:03.148Z,20.77
2018-04-07T01:06:30.879Z,19.70
2018-04-07T01:08:58.451Z,19.37
2018-04-07T01:11:26.014Z,20.10
2018-04-07T01:13:53.728Z,20.63
2018-04-07T01:16:21.297Z,19.77
2018-04-07T01:18:48.861Z,21.27
2018-04-07T01:21:16.426Z,21.07
2018-04-07T01:23:44.232Z,21.73
2018-04-07T01:26:11.830Z,21.20
2018-04-07T01:28:39.528Z,22.43
2018-04-07T01:31:07.085Z,21.30
2018-04-07T01:33:34.904Z,22.07
2018-04-07T01:36:02.513Z,22.20
2018-04-07T01:38:31.243Z,21.70
2018-04-07T01:40:59.062Z,22.20
2018-04-07T01:43:26.617Z,23.23
2018-04-07T01:45:54.197Z,22.83
2018-04-07T01:48:22.016Z,22.27
2018-04-07T01:50:49.622Z,23.87
2018-04-07T01:53:17.216Z,23.63
2018-04-07T01:55:44.934Z,23.43
2018-04-07T01:58:12.679Z,22.50
2018-04-07T02:00:40.245Z,22.87
2018-04-07T02:03:07.940Z,21.83
2018-04-07T02:05:35.552Z,23.10
2018-04-07T02:08:03.361Z,23.90
2018-04-07T02:10:30.951Z,22.47
2018-04-07T02:12:58.522Z,21.80
2018-04-07T02:15:26.095Z,20.23
2018-04-07T02:17:53.666Z,21.83
2018-04-07T02:20:21.235Z,22.67
2018-04-07T02:22:48.802Z,23.20
2018-04-07T02:25:16.366Z,23.00
2018-04-07T02:27:43.925Z,22.20
2018-04-07T02:30:11.722Z,21.80
2018-04-07T02:32:39.301Z,23.00
2018-04-07T02:35:06.876Z,23.93
2018-04-07T02:37:34.677Z,23.77
2018-04-07T02:40:02.256Z,24.57
2018-04-07T02:42:29.834Z,22.90
2018-04-07T02:44:57.631Z,23.60
2018-04-07T02:47:25.202Z,23.67
2018-04-07T02:49:52.766Z,24.90
2018-04-07T02:52:20.347Z,24.63
2018-04-07T02:54:48.104Z,25.03
2018-04-07T02:57:15.666Z,23.77
2018-04-07T02:59:43.415Z,24.90
2018-04-07T03:02:11.045Z,26.43
2018-04-07T03:04:38.609Z,24.87
2018-04-07T03:07:06.364Z,25.10
2018-04-07T03:09:33.926Z,24.83
2018-04-07T03:12:01.523Z,25.27
2018-04-07T03:14:29.126Z,26.03
2018-04-07T03:16:56.863Z,24.30
2018-04-07T03:19:24.604Z,23.33
2018-04-07T03:21:52.169Z,24.80
2018-04-07T03:24:19.746Z,25.43
2018-04-07T03:26:47.537Z,23.90
2018-04-07T03:29:15.117Z,26.30
2018-04-07T03:31:42.695Z,26.37
2018-04-07T03:34:10.258Z,25.30
2018-04-07T03:36:37.989Z,24.53
2018-04-07T03:39:06.230Z,26.33
2018-04-07T03:41:34.048Z,24.47
2018-04-07T03:44:01.621Z,25.53
2018-04-07T03:46:29.382Z,25.87
2018-04-07T03:48:56.981Z,25.67
2018-04-07T03:51:24.566Z,25.93
2018-04-07T03:53:52.227Z,26.47
2018-04-07T03:56:20.055Z,24.73
2018-04-07T03:58:47.873Z,26.07
2018-04-07T04:01:15.469Z,27.30
2018-04-07T04:03:43.075Z,27.50
2018-04-07T04:06:10.811Z,27.07
2018-04-07T04:08:38.381Z,26.60
2018-04-07T04:11:06.166Z,26.27
2018-04-07T04:13:33.982Z,27.33
2018-04-07T04:16:01.546Z,25.23
2018-04-07T04:18:29.114Z,27.23
2018-04-07T04:20:56.686Z,26.80
2018-04-07T04:23:24.254Z,26.13
2018-04-07T04:25:51.856Z,25.37
2018-04-07T04:28:19.427Z,25.73
2018-04-07T04:30:47.208Z,27.03
2018-04-07T04:33:15.028Z,26.07
2018-04-07T04:35:42.574Z,26.87
2018-04-07T04:38:10.148Z,28.10
2018-04-07T04:40:37.725Z,26.07
2018-04-07T04:43:05.353Z,25.90
2018-04-07T04:45:33.116Z,27.17
2018-04-07T04:48:00.744Z,25.57
2018-04-07T04:50:28.318Z,25.97
2018-04-07T04:52:55.888Z,27.03
2018-04-07T04:55:23.469Z,27.47
2018-04-07T04:57:51.044Z,26.20
2018-04-07T05:00:19.288Z,28.17
2018-04-07T05:02:47.043Z,27.53
2018-04-07T05:05:14.610Z,28.03
2018-04-07T05:07:42.379Z,28.83
2018-04-07T05:10:10.097Z,27.70
2018-04-07T05:12:37.680Z,28.80
2018-04-07T05:15:05.281Z,29.03
2018-04-07T05:17:32.890Z,27.27
2018-04-07T05:20:00.669Z,29.60
2018-04-07T05:22:28.229Z,26.07
2018-04-07T05:24:55.810Z,25.13
2018-04-07T05:27:23.382Z,26.03
2018-04-07T05:29:51.032Z,25.20
2018-04-07T05:32:18.858Z,25.47
2018-04-07T05:34:46.565Z,25.90
2018-04-07T05:37:14.134Z,27.23
2018-04-07T05:39:41.694Z,27.53
2018-04-07T05:42:09.299Z,27.60
2018-04-07T05:44:36.890Z,22.67
2018-04-07T05:47:04.463Z,22.60
2018-04-07T05:49:32.026Z,21.17
2018-04-07T05:51:59.642Z,23.60
2018-04-07T05:54:27.420Z,24.47
2018-04-07T05:56:55.034Z,23.17
2018-04-07T05:59:22.646Z,23.60
2018-04-07T06:01:50.360Z,22.40
2018-04-07T06:04:17.925Z,23.43
2018-04-07T06:06:45.496Z,22.07
2018-04-07T06:09:13.333Z,22.90
2018-04-07T06:11:41.147Z,22.43
2018-04-07T06:14:08.717Z,21.57
2018-04-07T06:16:36.286Z,20.40
2018-04-07T06:19:04.107Z,18.73
2018-04-07T06:21:31.919Z,18.50
2018-04-07T06:23:59.519Z,18.63
2018-04-07T06:26:27.247Z,18.07
2018-04-07T06:28:54.942Z,16.97
2018-04-07T06:31:22.506Z,17.00
2018-04-07T06:33:50.087Z,16.60
2018-04-07T06:36:17.660Z,16.00
2018-04-07T06:38:45.238Z,15.53
2018-04-07T06:41:13.063Z,16.70
2018-04-07T06:43:40.882Z,16.77
2018-04-07T06:46:08.801Z,16.23
2018-04-07T06:48:36.347Z,16.30
2018-04-07T06:51:04.105Z,16.17
2018-04-07T06:53:31.831Z,15.43
2018-04-07T06:55:59.673Z,15.67
2018-04-07T06:58:27.237Z,14.27
2018-04-07T07:00:54.862Z,14.00
2018-04-07T07:03:22.442Z,13.63
2018-04-07T07:05:50.246Z,12.93
2018-04-07T07:08:17.819Z,11.70
2018-04-07T07:10:45.373Z,13.87
2018-04-07T07:13:13.200Z,12.27
2018-04-07T07:15:40.766Z,11.37
2018-04-07T07:18:08.400Z,12.97
2018-04-07T07:20:36.115Z,11.20
2018-04-07T07:23:03.667Z,11.03
2018-04-07T07:25:31.268Z,11.23
2018-04-07T07:27:58.830Z,13.23
2018-04-07T07:30:26.401Z,11.53
2018-04-07T07:32:53.967Z,12.20
2018-04-07T07:35:21.762Z,13.73
2018-04-07T07:37:49.495Z,12.80
2018-04-07T07:40:17.091Z,9.70
2018-04-07T07:42:44.916Z,11.00
2018-04-07T07:45:12.480Z,11.17
2018-04-07T07:47:40.064Z,10.57
2018-04-07T07:50:07.870Z,12.50
2018-04-07T07:52:35.466Z,10.50
2018-04-07T07:55:03.206Z,10.30
2018-04-07T07:57:30.766Z,10.47
2018-04-07T07:59:58.363Z,9.67
2018-04-07T08:02:25.938Z,11.23
2018-04-07T08:04:53.779Z,10.13
2018-04-07T08:07:21.457Z,10.43
2018-04-07T08:09:49.315Z,11.30
2018-04-07T08:12:16.882Z,10.03
2018-04-07T08:14:44.461Z,10.27
2018-04-07T08:17:12.269Z,9.13
2018-04-07T08:19:39.874Z,9.60
2018-04-07T08:22:07.705Z,10.73
2018-04-07T08:24:35.281Z,9.00
2018-04-07T08:27:02.899Z,9.97
2018-04-07T08:29:30.661Z,10.47
2018-04-07T08:31:58.222Z,9.67
2018-04-07T08:34:25.826Z,10.13
2018-04-07T08:36:53.414Z,10.20
2018-04-07T08:39:21.028Z,10.07
2018-04-07T08:41:48.586Z,9.40
2018-04-07T08:44:16.203Z,8.83
2018-04-07T08:46:43.974Z,9.37
2018-04-07T08:49:11.540Z,10.53
2018-04-07T08:51:39.124Z,9.30
2018-04-07T08:54:06.696Z,9.10
2018-04-07T08:56:34.279Z,10.87
2018-04-07T08:59:02.082Z,10.03
2018-04-07T09:01:29.702Z,9.73
2018-04-07T09:03:57.262Z,8.80
2018-04-07T09:06:24.834Z,9.23
2018-04-07T09:08:52.426Z,10.13
2018-04-07T09:11:20.141Z,9.67
2018-04-07T09:13:47.714Z,9.87
2018-04-07T09:16:15.502Z,9.87
2018-04-07T09:18:43.110Z,9.60
2018-04-07T09:21:10.677Z,9.73
2018-04-07T09:23:38.238Z,9.40
2018-04-07T09:26:05.822Z,9.13
2018-04-07T09:28:33.379Z,9.67
2018-04-07T09:31:06.500Z,9.87
2018-04-07T09:33:34.062Z,9.57
2018-04-07T09:36:01.864Z,10.87
2018-04-07T09:38:29.441Z,10.40
2018-04-07T09:40:57.199Z,9.30
2018-04-07T09:43:25.018Z,9.77
2018-04-07T09:45:52.627Z,9.83
2018-04-07T09:48:20.357Z,8.73
2018-04-07T09:50:47.926Z,8.27
2018-04-07T09:53:15.577Z,8.33
2018-04-07T09:55:43.410Z,8.10
2018-04-07T09:58:10.970Z,7.60
2018-04-07T10:00:38.744Z,7.80
2018-04-07T10:03:06.365Z,7.93
2018-04-07T10:05:33.933Z,6.77
2018-04-07T10:08:01.501Z,6.80
2018-04-07T10:10:29.055Z,6.90
2018-04-07T10:12:56.619Z,7.73
2018-04-07T10:15:24.182Z,7.00
2018-04-07T10:17:51.745Z,7.30
2018-04-07T10:20:19.461Z,8.00
2018-04-07T10:22:47.046Z,6.90
2018-04-07T10:25:14.602Z,6.40
2018-04-07T10:27:42.175Z,5.93
2018-04-07T10:30:09.962Z,6.17
2018-04-07T10:32:37.528Z,6.00
2018-04-07T10:35:05.262Z,5.77
2018-04-07T10:37:32.906Z,6.47
2018-04-07T10:40:00.595Z,5.80
2018-04-07T10:42:28.153Z,6.40
2018-04-07T10:44:55.967Z,6.23
2018-04-07T10:47:23.686Z,6.60
2018-04-07T10:49:51.258Z,7.10
2018-04-07T10:52:18.817Z,6.60
2018-04-07T10:54:46.521Z,6.50
2018-04-07T10:57:14.089Z,6.97
2018-04-07T10:59:41.763Z,7.07
2018-04-07T11:02:09.334Z,7.67
2018-04-07T11:04:37.003Z,7.60
2018-04-07T11:07:04.583Z,7.10
2018-04-07T11:09:32.349Z,6.90
2018-04-07T11:11:59.905Z,6.93
2018-04-07T11:14:27.683Z,6.50
2018-04-07T11:16:55.262Z,7.50
2018-04-07T11:19:22.930Z,6.23
2018-04-07T11:21:50.497Z,6.57
2018-04-07T11:24:18.170Z,7.17
2018-04-07T11:26:45.726Z,6.80
2018-04-07T11:29:13.492Z,6.70
2018-04-07T11:31:41.215Z,9.33
2018-04-07T11:34:08.980Z,7.97
2018-04-07T11:36:36.638Z,7.07
2018-04-07T11:39:04.257Z,8.07
2018-04-07T11:41:31.831Z,8.60
2018-04-07T11:43:59.397Z,8.67
2018-04-07T11:46:26.971Z,11.30
2018-04-07T11:48:54.540Z,8.90
2018-04-07T11:51:22.101Z,8.87
2018-04-07T11:53:49.670Z,8.80
2018-04-07T11:56:17.234Z,9.73
2018-04-07T11:58:44.797Z,10.57
2018-04-07T12:01:12.532Z,11.00
2018-04-07T12:03:40.343Z,10.77
2018-04-07T12:06:07.953Z,11.50
2018-04-07T12:08:35.519Z,11.83
2018-04-07T12:11:03.265Z,11.20
2018-04-07T12:13:30.826Z,11.40
2018-04-07T12:15:58.634Z,10.73
2018-04-07T12:18:26.452Z,11.83
2018-04-07T12:20:54.170Z,12.70
2018-04-07T12:23:21.989Z,12.50
2018-04-07T12:25:49.807Z,12.60
2018-04-07T12:28:17.413Z,12.57
2018-04-07T12:30:44.978Z,12.73
2018-04-07T12:33:12.537Z,12.13
2018-04-07T12:35:40.115Z,11.40
2018-04-07T12:38:07.897Z,12.00
2018-04-07T12:40:35.468Z,14.37
2018-04-07T12:43:03.050Z,13.97
2018-04-07T12:45:30.698Z,13.97
2018-04-07T12:47:58.289Z,13.10
2018-04-07T12:50:25.872Z,12.30
2018-04-07T12:52:53.440Z,13.80
2018-04-07T12:55:21.642Z,13.67
2018-04-07T12:57:49.210Z,13.70
2018-04-07T13:00:16.794Z,13.60
2018-04-07T13:02:44.406Z,13.60
2018-04-07T13:05:12.200Z,12.37
2018-04-07T13:07:39.979Z,13.00
2018-04-07T13:10:07.732Z,13.17
2018-04-07T13:12:35.552Z,12.33
2018-04-07T13:15:03.370Z,13.87
2018-04-07T13:17:30.990Z,13.00
2018-04-07T13:19:58.807Z,12.60
2018-04-07T13:22:26.410Z,12.00
2018-04-07T13:24:54.012Z,11.33
2018-04-07T13:27:21.774Z,12.50
2018-04-07T13:29:49.348Z,11.47
2018-04-07T13:32:16.988Z,13.50
2018-04-07T13:34:44.554Z,13.20
2018-04-07T13:37:12.351Z,13.20
2018-04-07T13:39:39.929Z,14.53
2018-04-07T13:42:07.491Z,14.60
2018-04-07T13:44:35.074Z,16.90
2018-04-07T13:47:02.649Z,16.57
2018-04-07T13:49:30.332Z,14.83
2018-04-07T13:51:58.141Z,15.90
2018-04-07T13:54:25.712Z,16.37
2018-04-07T13:56:53.368Z,15.23
2018-04-07T13:59:20.950Z,16.03
2018-04-07T14:01:48.697Z,15.30
2018-04-07T14:04:16.438Z,15.90
2018-04-07T14:06:44.005Z,15.40
2018-04-07T14:09:11.747Z,16.40
2018-04-07T14:11:39.317Z,16.60
2018-04-07T14:14:07.080Z,15.17
2018-04-07T14:16:34.700Z,15.77
2018-04-07T14:19:02.258Z,17.23
2018-04-07T14:21:29.834Z,16.03
2018-04-07T14:23:57.398Z,16.07
2018-04-07T14:26:24.966Z,15.50
2018-04-07T14:28:52.534Z,17.37
2018-04-07T14:31:20.098Z,16.20
2018-04-07T14:33:47.847Z,16.27
2018-04-07T14:36:15.665Z,14.67
2018-04-07T14:38:43.483Z,16.23
2018-04-07T14:41:11.042Z,16.30
2018-04-07T14:43:38.600Z,18.30
2018-04-07T14:46:06.178Z,15.93
2018-04-07T14:48:33.739Z,15.33
2018-04-07T14:51:01.286Z,14.17
2018-04-07T14:53:29.091Z,14.27
2018-04-07T14:55:56.654Z,14.10
2018-04-07T14:58:24.321Z,14.33
2018-04-07T15:00:52.147Z,13.70
2018-04-07T15:03:19.726Z,13.17
2018-04-07T15:05:47.458Z,13.13
2018-04-07T15:08:15.200Z,13.67
2018-04-07T15:10:42.829Z,13.47
2018-04-07T15:13:10.637Z,13.83
2018-04-07T15:15:38.462Z,13.50
2018-04-07T15:18:06.273Z,13.87
2018-04-07T15:20:33.887Z,12.43
2018-04-07T15:23:01.474Z,13.37
2018-04-07T15:25:29.230Z,13.33
2018-04-07T15:27:56.846Z,12.77
2018-04-07T15:30:24.423Z,13.23
2018-04-07T15:32:51.994Z,12.60
2018-04-07T15:35:19.800Z,12.17
2018-04-07T15:37:47.362Z,12.80
2018-04-07T15:40:15.030Z,12.87
2018-04-07T15:42:42.594Z,12.17
2018-04-07T15:45:10.166Z,11.60
2018-04-07T15:47:37.770Z,11.33
2018-04-07T15:50:05.337Z,11.20
2018-04-07T15:52:33.128Z,11.33
2018-04-07T15:55:00.950Z,10.93
2018-04-07T15:57:28.614Z,10.43
2018-04-07T15:59:56.195Z,11.37
2018-04-07T16:02:23.767Z,11.97
2018-04-07T16:04:51.359Z,10.80
2018-04-07T16:07:19.075Z,31.60
2018-04-07T16:09:46.682Z,19.73
2018-04-07T16:12:14.286Z,12.47
2018-04-07T16:14:41.845Z,24.57
2018-04-07T16:17:09.457Z,12.50
2018-04-07T16:19:37.018Z,10.13
2018-04-07T16:22:04.842Z,12.07
2018-04-07T16:24:32.660Z,14.63
2018-04-07T16:27:00.222Z,15.40
2018-04-07T16:29:27.799Z,13.33
2018-04-07T16:31:55.614Z,38.30
2018-04-07T16:34:23.242Z,69.93
2018-04-07T16:36:51.053Z,53.67
2018-04-07T16:39:18.872Z,42.67
2018-04-07T16:41:46.494Z,15.43
2018-04-07T16:44:14.070Z,17.90
2018-04-07T16:46:41.715Z,11.90
2018-04-07T16:49:09.293Z,10.53
2018-04-07T16:51:36.950Z,10.93
2018-04-07T16:54:04.552Z,11.33
2018-04-07T16:56:32.295Z,14.73
2018-04-07T16:58:59.908Z,10.50
2018-04-07T17:01:27.733Z,11.03
2018-04-07T17:03:55.553Z,11.00
2018-04-07T17:06:23.122Z,12.57
2018-04-07T17:08:50.742Z,16.13
2018-04-07T17:11:18.301Z,13.37
2018-04-07T17:13:46.024Z,11.80
2018-04-07T17:16:13.610Z,13.20
2018-04-07T17:18:41.172Z,12.53
2018-04-07T17:21:08.763Z,13.30
2018-04-07T17:23:36.372Z,12.27
2018-04-07T17:26:03.994Z,12.83
2018-04-07T17:28:31.553Z,12.07
2018-04-07T17:30:59.348Z,12.83
2018-04-07T17:33:26.919Z,12.77
2018-04-07T17:35:54.602Z,13.57
2018-04-07T17:38:22.401Z,14.13
2018-04-07T17:40:49.971Z,13.97
2018-04-07T17:43:17.645Z,14.27
2018-04-07T17:45:45.357Z,14.37
2018-04-07T17:48:13.176Z,15.50
2018-04-07T17:50:40.750Z,16.40
2018-04-07T17:53:08.403Z,16.37
2018-04-07T17:55:36.230Z,16.77
2018-04-07T17:58:04.048Z,15.23
2018-04-07T18:00:31.866Z,15.07
2018-04-07T18:02:59.426Z,15.27
2018-04-07T18:05:26.970Z,18.00
2018-04-07T18:07:54.722Z,20.30
2018-04-07T18:10:22.271Z,17.77
2018-04-07T18:12:49.939Z,26.23
2018-04-07T18:15:17.645Z,29.50
2018-04-07T18:17:45.265Z,15.13
2018-04-07T18:20:12.830Z,16.53
2018-04-07T18:22:40.629Z,17.03
2018-04-07T18:25:08.451Z,18.73
2018-04-07T18:27:36.022Z,19.77
2018-04-07T18:30:03.670Z,16.63
2018-04-07T18:32:31.237Z,19.93
2018-04-07T18:34:59.020Z,21.37
2018-04-07T18:37:26.589Z,20.97
2018-04-07T18:39:54.335Z,19.73
2018-04-07T18:42:22.053Z,20.40
2018-04-07T18:44:49.626Z,21.77
2018-04-07T18:47:17.410Z,22.63
2018-04-07T18:49:44.986Z,21.50
2018-04-07T18:52:12.611Z,23.63
2018-04-07T18:54:40.382Z,24.67
2018-04-07T18:57:08.093Z,23.20
2018-04-07T18:59:35.665Z,21.73
2018-04-07T19:02:03.255Z,22.60
2018-04-07T19:04:30.877Z,26.00
2018-04-07T19:06:58.487Z,23.00
2018-04-07T19:09:26.163Z,23.30
2018-04-07T19:11:53.761Z,22.30
2018-04-07T19:14:21.358Z,23.63
2018-04-07T19:16:49.730Z,24.77
2018-04-07T19:19:17.298Z,24.23
2018-04-07T19:21:44.952Z,21.00
2018-04-07T19:24:12.519Z,20.90
2018-04-07T19:26:40.301Z,21.83
2018-04-07T19:29:08.020Z,21.17
2018-04-07T19:31:35.629Z,21.07
2018-04-07T19:34:03.456Z,30.60
2018-04-07T19:36:31.274Z,30.27
2018-04-07T19:38:59.093Z,28.47
2018-04-07T19:41:26.932Z,27.33
2018-04-07T19:43:54.543Z,26.40
2018-04-07T19:46:22.111Z,24.57
2018-04-07T19:48:49.767Z,37.73
2018-04-07T19:51:17.587Z,24.00
2018-04-07T19:53:45.174Z,24.83
2018-04-07T19:56:12.754Z,24.13
2018-04-07T19:58:40.318Z,32.67
2018-04-07T20:01:07.930Z,29.00
2018-04-07T20:03:35.497Z,29.07
2018-04-07T20:06:03.294Z,24.63
2018-04-07T20:08:31.111Z,22.53
2018-04-07T20:10:58.674Z,23.77
2018-04-07T20:13:26.446Z,18.50
2018-04-07T20:15:54.006Z,20.70
2018-04-07T20:18:21.622Z,23.73
2018-04-07T20:20:49.437Z,26.97
2018-04-07T20:23:17.010Z,36.03
2018-04-07T20:25:44.838Z,50.17
2018-04-07T20:28:12.402Z,37.93
2018-04-07T20:30:40.174Z,32.17
2018-04-07T20:33:07.993Z,27.17
2018-04-07T20:35:35.614Z,25.70
2018-04-07T20:38:03.221Z,29.13
2018-04-07T20:40:30.927Z,28.97
2018-04-07T20:42:58.765Z,30.17
2018-04-07T20:45:26.342Z,30.60
2018-04-07T20:47:53.925Z,33.17
2018-04-07T20:50:21.489Z,26.40
2018-04-07T20:52:49.065Z,34.60
2018-04-07T20:55:16.648Z,29.53
2018-04-07T20:57:44.372Z,26.97
2018-04-07T21:00:11.985Z,25.27
2018-04-07T21:02:39.675Z,23.33
2018-04-07T21:05:07.244Z,22.37
2018-04-07T21:07:34.809Z,19.33
2018-04-07T21:10:02.375Z,19.60
2018-04-07T21:12:30.064Z,18.20
2018-04-07T21:14:57.799Z,14.57
2018-04-07T21:17:25.361Z,14.83
2018-04-07T21:19:52.947Z,15.70
2018-04-07T21:22:20.758Z,15.83
2018-04-07T21:24:48.346Z,17.30
2018-04-07T21:27:16.066Z,14.13
2018-04-07T21:29:43.674Z,14.53
2018-04-07T21:32:11.265Z,12.53
2018-04-07T21:34:39.042Z,13.77
2018-04-07T21:37:06.618Z,16.50
2018-04-07T21:39:34.203Z,17.47
2018-04-07T21:42:01.777Z,16.07
2018-04-07T21:44:29.338Z,15.20
2018-04-07T21:46:57.098Z,15.67
2018-04-07T21:49:24.840Z,13.83
2018-04-07T21:51:52.571Z,15.07
2018-04-07T21:54:20.390Z,16.90
2018-04-07T21:56:48.109Z,17.23
2018-04-07T21:59:15.735Z,17.57
2018-04-07T22:01:43.314Z,13.10
2018-04-07T22:04:11.160Z,13.37
2018-04-07T22:06:38.740Z,13.47
2018-04-07T22:09:06.597Z,15.30
2018-04-07T22:11:34.210Z,28.40
2018-04-07T22:14:01.907Z,29.57
2018-04-07T22:16:29.525Z,27.03
2018-04-07T22:18:57.269Z,23.73
2018-04-07T22:21:24.890Z,21.80
2018-04-07T22:23:52.706Z,19.37
2018-04-07T22:26:20.299Z,19.40
2018-04-07T22:28:48.438Z,41.53
2018-04-07T22:31:16.030Z,24.53
2018-04-07T22:33:43.662Z,16.37
2018-04-07T22:36:11.500Z,14.07
2018-04-07T22:38:39.155Z,13.93
2018-04-07T22:41:06.719Z,14.70
2018-04-07T22:43:34.289Z,14.07
2018-04-07T22:46:01.877Z,22.83
2018-04-07T22:48:29.687Z,31.20
2018-04-07T22:50:57.506Z,27.23
2018-04-07T22:53:25.324Z,26.63
2018-04-07T22:55:52.943Z,25.67
2018-04-07T22:58:20.514Z,24.03
2018-04-07T23:00:48.280Z,23.90
2018-04-07T23:03:15.831Z,21.23
2018-04-07T23:05:43.615Z,21.90
2018-04-07T23:08:11.186Z,22.57
2018-04-07T23:10:38.757Z,21.27
2018-04-07T23:13:06.460Z,21.83
2018-04-07T23:15:34.288Z,21.53
2018-04-07T23:18:01.864Z,22.13
2018-04-07T23:20:29.453Z,21.77
2018-04-07T23:22:57.013Z,21.13
2018-04-07T23:25:24.582Z,24.83
2018-04-07T23:27:52.377Z,32.77
2018-04-07T23:30:20.196Z,30.87
2018-04-07T23:32:48.113Z,40.10
2018-04-07T23:35:15.853Z,31.77
2018-04-07T23:37:43.544Z,29.33
2018-04-07T23:40:11.269Z,55.73
2018-04-07T23:42:38.843Z,42.47
2018-04-07T23:45:06.406Z,39.33
2018-04-07T23:47:34.038Z,31.80
2018-04-07T23:50:01.833Z,19.07
2018-04-07T23:52:29.561Z,18.47
2018-04-07T23:54:57.380Z,19.07
2018-04-07T23:57:24.938Z,23.57
2018-04-07T23:59:52.506Z,21.37
